createdAt,value
2023-06-30T00:01:40.816Z,19.55
2023-06-30T00:04:08.718Z,18.52
2023-06-30T00:06:36.365Z,18.30
2023-06-30T00:09:06.268Z,15.50
2023-06-30T00:11:33.972Z,15.32
2023-06-30T00:14:01.607Z,17.58
2023-06-30T00:16:32.853Z,17.77
2023-06-30T00:19:01.060Z,19.65
2023-06-30T00:21:28.716Z,23.20
2023-06-30T00:24:03.123Z,19.05
2023-06-30T00:26:34.780Z,17.63
2023-06-30T00:29:04.946Z,19.17
2023-06-30T00:31:36.798Z,17.90
2023-06-30T00:34:06.902Z,19.52
2023-06-30T00:36:34.617Z,20.73
2023-06-30T00:39:02.357Z,18.83
2023-06-30T00:41:32.378Z,22.50
2023-06-30T00:44:02.896Z,23.58
2023-06-30T00:46:33.093Z,21.63
2023-06-30T00:49:00.904Z,18.10
2023-06-30T00:51:28.589Z,18.70
2023-06-30T00:53:57.343Z,18.95
2023-06-30T00:56:27.596Z,16.83
2023-06-30T00:58:55.587Z,20.35
2023-06-30T01:01:28.530Z,22.77
2023-06-30T01:04:03.040Z,19.80
2023-06-30T01:06:32.969Z,18.63
2023-06-30T01:15:19.231Z,19.05
2023-06-30T01:17:54.228Z,18.55
2023-06-30T01:20:22.265Z,17.63
2023-06-30T01:22:56.516Z,22.33
2023-06-30T01:25:26.447Z,18.17
2023-06-30T01:27:56.789Z,18.63
2023-06-30T01:30:25.504Z,19.85
2023-06-30T01:32:56.194Z,19.98
2023-06-30T01:35:24.432Z,21.38
2023-06-30T01:37:54.792Z,21.35
2023-06-30T01:40:23.100Z,19.35
2023-06-30T01:42:54.461Z,19.60
2023-06-30T01:45:22.815Z,17.40
2023-06-30T01:47:53.440Z,19.20
2023-06-30T01:50:23.090Z,19.25
2023-06-30T01:52:51.057Z,18.75
2023-06-30T01:55:18.899Z,19.92
2023-06-30T01:57:46.615Z,17.70
2023-06-30T02:00:15.576Z,18.25
2023-06-30T02:02:43.699Z,17.67
2023-06-30T02:05:13.691Z,18.60
2023-06-30T02:07:43.543Z,18.27
2023-06-30T02:10:13.660Z,21.90
2023-06-30T02:12:45.374Z,19.20
2023-06-30T02:15:15.305Z,21.83
2023-06-30T02:17:45.362Z,19.17
2023-06-30T02:20:15.017Z,20.65
2023-06-30T02:22:44.216Z,19.67
2023-06-30T02:25:15.002Z,19.48
2023-06-30T02:27:47.033Z,18.00
2023-06-30T02:30:19.569Z,17.35
2023-06-30T02:32:47.379Z,16.70
2023-06-30T02:35:17.263Z,18.70
2023-06-30T02:37:46.346Z,19.65
2023-06-30T02:40:14.986Z,18.23
2023-06-30T02:42:42.845Z,17.92
2023-06-30T02:45:11.764Z,19.05
2023-06-30T02:47:41.595Z,20.10
2023-06-30T02:50:09.932Z,19.92
2023-06-30T02:52:40.173Z,18.70
2023-06-30T02:55:11.702Z,15.50
2023-06-30T02:57:39.429Z,18.52
2023-06-30T03:00:11.984Z,15.70
2023-06-30T03:02:39.938Z,15.13
2023-06-30T03:05:09.289Z,16.65
2023-06-30T03:07:37.085Z,17.98
2023-06-30T03:10:08.269Z,17.33
2023-06-30T03:12:37.630Z,16.77
2023-06-30T03:15:07.964Z,19.75
2023-06-30T03:17:37.965Z,20.38
2023-06-30T03:20:11.934Z,14.85
2023-06-30T03:22:40.386Z,20.85
2023-06-30T03:25:10.844Z,20.73
2023-06-30T03:27:42.262Z,19.42
2023-06-30T03:30:10.519Z,23.77
2023-06-30T03:32:43.720Z,21.48
2023-06-30T03:35:11.481Z,17.83
2023-06-30T03:37:39.228Z,17.88
2023-06-30T03:40:07.872Z,18.58
2023-06-30T03:42:38.921Z,22.73
2023-06-30T03:45:08.980Z,18.30
2023-06-30T03:47:37.136Z,16.63
2023-06-30T03:50:07.803Z,18.13
2023-06-30T03:52:36.753Z,16.20
2023-06-30T03:55:05.023Z,18.95
2023-06-30T03:57:32.774Z,18.98
2023-06-30T04:00:03.242Z,20.27
2023-06-30T04:02:41.650Z,16.42
2023-06-30T04:05:12.592Z,19.50
2023-06-30T04:07:42.855Z,17.38
2023-06-30T04:10:10.957Z,20.77
2023-06-30T04:12:38.653Z,21.45
2023-06-30T04:15:11.731Z,16.15
2023-06-30T04:17:40.921Z,19.48
2023-06-30T04:20:10.534Z,16.00
2023-06-30T04:22:38.884Z,17.88
2023-06-30T04:25:09.488Z,18.58
2023-06-30T04:27:37.444Z,19.92
2023-06-30T04:30:07.667Z,18.67
2023-06-30T04:32:36.040Z,19.23
2023-06-30T04:35:11.632Z,18.27
2023-06-30T04:37:41.905Z,18.33
2023-06-30T04:40:10.441Z,23.70
2023-06-30T04:42:38.522Z,17.05
2023-06-30T04:45:06.743Z,18.55
2023-06-30T04:47:37.000Z,19.67
2023-06-30T04:50:05.346Z,17.63
2023-06-30T04:52:34.306Z,20.77
2023-06-30T04:55:01.968Z,21.17
2023-06-30T04:57:31.945Z,18.75
2023-06-30T05:00:00.015Z,18.85
2023-06-30T05:02:30.497Z,17.52
2023-06-30T05:05:00.599Z,17.48
2023-06-30T05:07:28.912Z,18.95
2023-06-30T05:09:57.991Z,19.90
2023-06-30T05:12:25.699Z,18.33
2023-06-30T05:14:53.344Z,19.98
2023-06-30T05:17:21.139Z,20.60
2023-06-30T05:19:48.856Z,18.73
2023-06-30T05:22:16.694Z,18.63
2023-06-30T05:24:44.460Z,18.23
2023-06-30T05:27:13.559Z,17.55
2023-06-30T05:29:41.178Z,19.77
2023-06-30T05:32:09.610Z,20.13
2023-06-30T05:34:37.319Z,17.33
2023-06-30T05:37:07.343Z,23.70
2023-06-30T05:39:35.111Z,21.70
2023-06-30T05:42:03.145Z,20.35
2023-06-30T05:44:35.229Z,20.20
2023-06-30T05:47:03.782Z,19.80
2023-06-30T05:49:33.628Z,23.80
2023-06-30T05:52:02.403Z,20.85
2023-06-30T05:54:32.353Z,21.00
2023-06-30T05:57:00.352Z,19.38
2023-06-30T05:59:31.567Z,17.98
2023-06-30T06:02:01.336Z,20.55
2023-06-30T06:04:29.228Z,21.70
2023-06-30T06:07:03.589Z,19.25
2023-06-30T06:09:31.399Z,23.67
2023-06-30T06:12:02.588Z,20.27
2023-06-30T06:14:32.756Z,19.92
2023-06-30T06:17:04.277Z,22.50
2023-06-30T06:19:32.024Z,19.70
2023-06-30T06:21:59.707Z,18.65
2023-06-30T06:24:29.635Z,20.02
2023-06-30T06:26:59.651Z,19.55
2023-06-30T06:29:27.402Z,20.20
2023-06-30T06:31:55.091Z,18.58
2023-06-30T06:34:26.342Z,22.35
2023-06-30T06:36:54.259Z,20.38
2023-06-30T06:39:22.193Z,18.73
2023-06-30T06:41:50.148Z,15.10
2023-06-30T06:44:18.422Z,13.95
2023-06-30T06:46:46.114Z,13.88
2023-06-30T06:49:15.968Z,15.60
2023-06-30T06:51:44.981Z,13.77
2023-06-30T06:54:12.653Z,14.32
2023-06-30T06:56:40.310Z,14.65
2023-06-30T06:59:08.103Z,12.20
2023-06-30T07:01:38.098Z,14.38
2023-06-30T07:04:05.999Z,13.20
2023-06-30T07:06:36.085Z,13.30
2023-06-30T07:09:05.198Z,11.23
2023-06-30T07:11:33.656Z,13.80
2023-06-30T07:14:01.395Z,11.23
2023-06-30T07:16:31.581Z,11.10
2023-06-30T07:18:59.544Z,11.82
2023-06-30T07:21:27.477Z,14.20
2023-06-30T07:23:55.172Z,10.77
2023-06-30T07:26:24.282Z,13.02
2023-06-30T07:28:51.940Z,11.90
2023-06-30T07:31:21.925Z,14.52
2023-06-30T07:33:49.615Z,16.15
2023-06-30T07:36:19.691Z,15.65
2023-06-30T07:38:49.648Z,12.05
2023-06-30T07:41:17.470Z,13.15
2023-06-30T07:43:46.527Z,12.73
2023-06-30T07:46:16.430Z,15.20
2023-06-30T07:48:44.230Z,13.30
2023-06-30T07:51:14.061Z,13.18
2023-06-30T07:53:41.722Z,11.30
2023-06-30T07:56:09.432Z,12.68
2023-06-30T07:58:37.065Z,12.60
2023-06-30T08:01:06.150Z,12.10
2023-06-30T08:03:35.243Z,13.70
2023-06-30T08:06:03.540Z,15.00
2023-06-30T08:08:31.960Z,12.75
2023-06-30T08:11:01.919Z,14.40
2023-06-30T08:13:29.623Z,13.45
2023-06-30T08:15:59.614Z,16.13
2023-06-30T08:18:33.687Z,16.25
2023-06-30T08:21:02.346Z,16.13
2023-06-30T08:23:30.255Z,14.30
2023-06-30T08:25:57.932Z,17.60
2023-06-30T08:28:27.857Z,15.73
2023-06-30T08:30:57.800Z,14.93
2023-06-30T08:36:01.834Z,13.50
2023-06-30T08:38:29.776Z,13.18
2023-06-30T08:40:57.635Z,13.27
2023-06-30T08:43:29.250Z,13.45
2023-06-30T08:46:00.918Z,15.00
2023-06-30T08:48:31.400Z,15.65
2023-06-30T08:51:00.445Z,18.20
2023-06-30T08:53:30.211Z,16.45
2023-06-30T08:55:59.161Z,18.70
2023-06-30T08:58:27.633Z,16.50
2023-06-30T09:00:55.623Z,15.98
2023-06-30T09:03:23.569Z,16.30
2023-06-30T09:05:55.433Z,15.00
2023-06-30T09:08:24.513Z,14.93
2023-06-30T09:10:52.483Z,14.68
2023-06-30T09:13:24.108Z,17.00
2023-06-30T09:15:52.577Z,16.10
2023-06-30T09:18:20.294Z,13.52
2023-06-30T09:20:48.179Z,17.13
2023-06-30T09:23:19.467Z,13.68
2023-06-30T09:25:48.408Z,15.07
2023-06-30T09:28:18.780Z,14.73
2023-06-30T09:30:48.787Z,13.82
2023-06-30T09:33:19.335Z,12.90
2023-06-30T09:35:48.508Z,16.45
2023-06-30T09:38:20.960Z,14.07
2023-06-30T09:40:49.574Z,14.35
2023-06-30T09:43:18.292Z,16.73
2023-06-30T09:45:47.320Z,13.45
2023-06-30T09:48:15.713Z,13.93
2023-06-30T09:50:44.175Z,13.48
2023-06-30T09:53:12.045Z,12.25
2023-06-30T09:55:50.983Z,13.00
2023-06-30T09:58:21.553Z,13.75
2023-06-30T10:00:49.759Z,12.77
2023-06-30T10:03:18.376Z,11.85
2023-06-30T10:05:50.508Z,16.55
2023-06-30T10:08:22.890Z,14.77
2023-06-30T10:10:53.861Z,14.65
2023-06-30T10:13:22.092Z,14.57
2023-06-30T10:15:50.144Z,15.60
2023-06-30T10:18:20.399Z,15.80
2023-06-30T10:20:50.056Z,12.52
2023-06-30T10:23:19.092Z,14.68
2023-06-30T10:25:50.287Z,15.32
2023-06-30T10:28:23.107Z,12.38
2023-06-30T10:30:51.504Z,15.10
2023-06-30T10:33:19.232Z,11.13
2023-06-30T10:35:49.832Z,13.57
2023-06-30T10:38:17.613Z,13.32
2023-06-30T10:40:45.280Z,17.08
2023-06-30T10:43:14.792Z,14.00
2023-06-30T10:45:57.504Z,16.83
2023-06-30T10:48:29.121Z,16.75
2023-06-30T10:50:59.421Z,17.65
2023-06-30T10:53:29.345Z,15.23
2023-06-30T10:55:59.371Z,15.98
2023-06-30T10:58:29.444Z,14.60
2023-06-30T11:01:03.963Z,20.73
2023-06-30T11:04:07.611Z,16.05
2023-06-30T11:06:37.180Z,16.27
2023-06-30T11:09:05.528Z,17.83
2023-06-30T11:11:48.569Z,14.57
2023-06-30T11:14:16.225Z,15.07
2023-06-30T11:17:05.711Z,12.63
2023-06-30T11:19:36.817Z,14.60
2023-06-30T11:22:23.022Z,12.60
2023-06-30T11:24:50.974Z,11.02
2023-06-30T11:27:21.871Z,13.07
2023-06-30T11:29:52.690Z,12.55
2023-06-30T11:32:20.720Z,14.73
2023-06-30T11:34:49.746Z,11.13
2023-06-30T11:37:17.547Z,14.60
2023-06-30T11:39:51.700Z,13.02
2023-06-30T11:42:19.547Z,16.42
2023-06-30T11:44:47.196Z,15.52
2023-06-30T11:47:15.395Z,15.13
2023-06-30T11:49:43.270Z,17.98
2023-06-30T11:52:12.401Z,15.40
2023-06-30T11:54:40.102Z,14.65
2023-06-30T11:57:07.867Z,12.73
2023-06-30T11:59:35.646Z,14.88
2023-06-30T12:02:06.468Z,14.95
2023-06-30T12:04:37.717Z,12.85
2023-06-30T12:07:07.199Z,13.70
2023-06-30T12:09:36.695Z,15.63
2023-06-30T12:12:04.516Z,13.18
2023-06-30T12:14:41.549Z,14.57
2023-06-30T12:17:12.330Z,11.32
2023-06-30T12:19:40.098Z,13.02
2023-06-30T12:22:09.182Z,15.05
2023-06-30T12:24:43.351Z,14.25
2023-06-30T12:27:11.121Z,14.02
2023-06-30T12:29:38.834Z,15.20
2023-06-30T12:32:13.186Z,14.13
2023-06-30T12:34:43.233Z,12.23
2023-06-30T12:37:13.713Z,11.15
2023-06-30T12:39:43.059Z,13.57
2023-06-30T12:42:12.338Z,15.93
2023-06-30T12:44:40.107Z,14.85
2023-06-30T12:47:08.709Z,13.05
2023-06-30T12:49:37.817Z,15.25
2023-06-30T12:52:08.095Z,11.18
2023-06-30T12:54:35.855Z,13.40
2023-06-30T12:57:05.319Z,13.48
2023-06-30T12:59:33.027Z,10.23
2023-06-30T13:02:00.803Z,12.23
2023-06-30T13:04:28.966Z,13.10
2023-06-30T13:06:59.901Z,11.88
2023-06-30T13:09:28.017Z,13.52
2023-06-30T13:11:56.836Z,12.45
2023-06-30T13:14:25.889Z,11.20
2023-06-30T13:16:53.611Z,16.08
2023-06-30T13:19:23.285Z,14.07
2023-06-30T13:21:51.181Z,14.05
2023-06-30T13:24:18.954Z,13.73
2023-06-30T13:26:49.189Z,12.13
2023-06-30T13:29:18.769Z,11.98
2023-06-30T13:31:50.689Z,13.07
2023-06-30T13:34:20.098Z,11.75
2023-06-30T13:36:48.123Z,14.02
2023-06-30T13:39:15.838Z,15.52
2023-06-30T13:41:43.829Z,16.17
2023-06-30T13:44:11.593Z,14.02
2023-06-30T13:46:39.304Z,14.07
2023-06-30T13:49:08.514Z,15.15
2023-06-30T13:51:39.190Z,14.38
2023-06-30T13:54:06.909Z,14.60
2023-06-30T13:56:34.548Z,13.60
2023-06-30T13:59:02.195Z,14.10
2023-06-30T14:01:32.249Z,14.20
2023-06-30T14:04:00.003Z,15.75
2023-06-30T14:06:29.150Z,15.23
2023-06-30T14:08:57.389Z,14.32
2023-06-30T14:11:28.081Z,14.30
2023-06-30T14:13:56.412Z,13.10
2023-06-30T14:16:24.906Z,13.30
2023-06-30T14:18:52.807Z,14.45
2023-06-30T14:21:20.494Z,16.27
2023-06-30T14:23:49.559Z,13.60
2023-06-30T14:26:19.622Z,13.40
2023-06-30T14:28:47.356Z,14.25
2023-06-30T14:31:17.429Z,14.63
2023-06-30T14:33:45.227Z,14.70
2023-06-30T14:36:15.274Z,12.20
2023-06-30T14:38:42.959Z,13.55
2023-06-30T14:41:11.994Z,14.27
2023-06-30T14:43:39.703Z,14.57
2023-06-30T14:46:09.628Z,12.85
2023-06-30T14:48:41.181Z,15.48
2023-06-30T14:51:09.119Z,14.23
2023-06-30T14:53:37.026Z,14.70
2023-06-30T14:56:06.996Z,16.17
2023-06-30T14:58:36.021Z,20.33
2023-06-30T15:01:03.763Z,19.85
2023-06-30T15:03:31.536Z,21.08
2023-06-30T15:05:59.336Z,23.95
2023-06-30T15:08:29.285Z,26.08
2023-06-30T15:10:57.003Z,22.60
2023-06-30T15:13:24.765Z,25.05
2023-06-30T15:15:56.016Z,23.00
2023-06-30T15:18:25.973Z,25.13
2023-06-30T15:20:55.908Z,26.30
2023-06-30T15:23:25.900Z,26.13
2023-06-30T15:25:56.140Z,25.50
2023-06-30T15:28:24.042Z,24.92
2023-06-30T15:30:51.765Z,25.75
2023-06-30T15:33:20.901Z,22.83
2023-06-30T15:35:48.913Z,19.67
2023-06-30T15:38:16.843Z,11.85
2023-06-30T15:40:44.549Z,13.77
2023-06-30T15:43:14.510Z,14.55
2023-06-30T15:45:42.185Z,9.52
2023-06-30T15:48:14.664Z,10.70
2023-06-30T15:50:43.891Z,10.23
2023-06-30T15:55:43.563Z,9.40
2023-06-30T15:58:13.827Z,10.75
2023-06-30T16:00:41.630Z,9.55
2023-06-30T16:03:09.384Z,10.75
2023-06-30T16:05:37.174Z,15.32
2023-06-30T16:08:06.753Z,12.13
2023-06-30T16:10:34.461Z,14.07
2023-06-30T16:13:06.358Z,13.85
2023-06-30T16:15:39.500Z,13.10
2023-06-30T16:18:09.517Z,11.35
2023-06-30T16:20:37.244Z,13.20
2023-06-30T16:23:06.258Z,11.45
2023-06-30T16:25:36.360Z,12.73
2023-06-30T16:28:06.535Z,12.50
2023-06-30T16:30:37.656Z,10.23
2023-06-30T16:33:05.869Z,15.18
2023-06-30T16:35:34.665Z,14.23
2023-06-30T16:38:06.834Z,14.55
2023-06-30T16:43:04.615Z,17.15
2023-06-30T16:45:32.308Z,16.63
2023-06-30T16:48:00.252Z,20.70
2023-06-30T16:50:27.978Z,17.52
2023-06-30T16:52:55.631Z,18.02
2023-06-30T16:55:27.629Z,16.25
2023-06-30T16:57:57.666Z,19.33
2023-06-30T17:00:25.437Z,17.67
2023-06-30T17:02:53.113Z,18.50
2023-06-30T17:05:22.818Z,19.25
2023-06-30T17:07:51.354Z,19.02
2023-06-30T17:10:19.183Z,17.80
2023-06-30T17:12:50.428Z,16.52
2023-06-30T17:15:21.252Z,16.88
2023-06-30T17:17:48.989Z,14.82
2023-06-30T17:20:18.882Z,17.20
2023-06-30T17:22:46.568Z,15.82
2023-06-30T17:25:16.652Z,18.05
2023-06-30T17:27:46.776Z,18.15
2023-06-30T17:30:16.039Z,16.98
2023-06-30T17:32:43.750Z,13.93
2023-06-30T17:35:11.504Z,14.35
2023-06-30T17:37:39.244Z,13.50
2023-06-30T17:40:07.803Z,14.07
2023-06-30T17:42:35.509Z,11.30
2023-06-30T17:45:03.523Z,14.25
2023-06-30T17:47:32.515Z,13.48
2023-06-30T17:50:00.616Z,16.00
2023-06-30T17:52:28.397Z,13.98
2023-06-30T17:54:57.724Z,13.88
2023-06-30T17:57:44.085Z,11.90
2023-06-30T18:00:12.560Z,8.38
2023-06-30T18:02:41.664Z,7.78
2023-06-30T18:09:43.054Z,8.23
2023-06-30T18:12:28.163Z,7.10
2023-06-30T18:15:03.843Z,9.60
2023-06-30T18:17:31.572Z,9.50
2023-06-30T18:20:00.656Z,8.68
2023-06-30T18:22:32.116Z,8.38
2023-06-30T18:25:10.578Z,6.95
2023-06-30T18:27:41.361Z,8.57
2023-06-30T18:30:18.810Z,8.85
2023-06-30T18:32:47.964Z,8.30
2023-06-30T18:35:20.510Z,9.15
2023-06-30T18:38:25.956Z,8.30
2023-06-30T18:40:57.750Z,7.72
2023-06-30T18:43:25.537Z,7.93
2023-06-30T18:45:53.187Z,9.07
2023-06-30T18:48:20.838Z,8.25
2023-06-30T18:50:49.897Z,8.65
2023-06-30T18:53:17.937Z,7.85
2023-06-30T18:59:02.696Z,9.45
2023-06-30T19:01:30.636Z,8.63
2023-06-30T19:03:58.522Z,9.48
2023-06-30T19:06:30.173Z,9.70
2023-06-30T19:08:58.085Z,10.00
2023-06-30T19:11:26.306Z,9.48
2023-06-30T19:13:54.012Z,7.00
2023-06-30T19:16:21.937Z,8.27
2023-06-30T19:18:49.755Z,8.25
2023-06-30T19:21:17.685Z,7.68
2023-06-30T19:23:46.824Z,6.75
2023-06-30T19:26:14.623Z,5.35
2023-06-30T19:28:42.429Z,5.90
2023-06-30T19:31:10.208Z,5.15
2023-06-30T19:33:38.293Z,6.32
2023-06-30T19:36:06.315Z,6.53
2023-06-30T19:38:34.449Z,6.53
2023-06-30T19:41:03.469Z,5.72
2023-06-30T19:43:33.440Z,5.60
2023-06-30T19:46:03.377Z,5.13
2023-06-30T19:48:33.298Z,6.85
2023-06-30T19:51:00.981Z,7.68
2023-06-30T19:53:28.637Z,7.07
2023-06-30T19:55:56.374Z,6.65
2023-06-30T19:58:25.440Z,7.75
2023-06-30T20:00:53.091Z,6.90
2023-06-30T20:03:20.918Z,8.73
2023-06-30T20:05:48.940Z,8.48
2023-06-30T20:08:16.930Z,5.93
2023-06-30T20:10:44.662Z,6.05
2023-06-30T20:13:12.371Z,4.75
2023-06-30T20:15:42.010Z,6.05
2023-06-30T20:18:09.753Z,7.53
2023-06-30T20:20:37.557Z,6.45
2023-06-30T20:23:05.293Z,6.00
2023-06-30T20:25:33.089Z,5.18
2023-06-30T20:28:03.083Z,7.03
2023-06-30T20:30:30.759Z,7.03
2023-06-30T20:32:59.988Z,9.93
2023-06-30T20:35:30.761Z,5.95
2023-06-30T20:38:01.414Z,6.47
2023-06-30T20:40:29.306Z,6.43
2023-06-30T20:42:57.439Z,5.18
2023-06-30T20:45:25.095Z,5.07
2023-06-30T20:47:53.671Z,6.72
2023-06-30T20:50:22.798Z,4.82
2023-06-30T20:52:50.601Z,6.10
2023-06-30T20:55:20.753Z,5.25
2023-06-30T20:57:48.755Z,6.10
2023-06-30T21:00:16.498Z,4.78
2023-06-30T21:02:44.276Z,6.22
2023-06-30T21:05:12.204Z,5.88
2023-06-30T21:07:41.274Z,5.30
2023-06-30T21:10:09.166Z,3.75
2023-06-30T21:12:37.076Z,7.28
2023-06-30T21:15:05.038Z,5.20
2023-06-30T21:17:32.806Z,6.38
2023-06-30T21:20:00.594Z,5.15
2023-06-30T21:22:28.227Z,6.05
2023-06-30T21:24:59.460Z,4.68
2023-06-30T21:27:28.005Z,3.65
2023-06-30T21:29:55.698Z,3.83
2023-06-30T21:32:23.528Z,3.45
2023-06-30T21:34:53.713Z,5.93
2023-06-30T21:37:21.473Z,4.78
2023-06-30T21:39:51.373Z,4.28
2023-06-30T21:42:22.650Z,4.47
2023-06-30T21:44:52.887Z,4.82
2023-06-30T21:47:23.095Z,4.28
2023-06-30T21:49:52.849Z,4.35
2023-06-30T21:52:20.577Z,4.05
2023-06-30T21:54:50.553Z,4.72
2023-06-30T21:57:18.341Z,4.50
2023-06-30T21:59:47.522Z,4.93
2023-06-30T22:02:17.807Z,4.78
2023-06-30T22:04:45.806Z,5.35
2023-06-30T22:07:15.629Z,3.75
2023-06-30T22:09:45.528Z,5.78
2023-06-30T22:12:13.733Z,4.30
2023-06-30T22:14:41.423Z,4.25
2023-06-30T22:17:12.766Z,3.67
2023-06-30T22:19:40.574Z,4.13
2023-06-30T22:22:08.298Z,5.13
2023-06-30T22:24:35.941Z,4.05
2023-06-30T22:27:04.330Z,5.40
2023-06-30T22:29:34.196Z,4.15
2023-06-30T22:32:01.831Z,4.55
2023-06-30T22:34:30.870Z,6.13
2023-06-30T22:37:00.773Z,5.15
2023-06-30T22:39:28.516Z,4.53
2023-06-30T22:41:58.448Z,5.47
2023-06-30T22:44:26.110Z,5.60
2023-06-30T22:46:56.134Z,5.28
2023-06-30T22:49:26.124Z,6.45
2023-06-30T22:51:55.351Z,5.75
2023-06-30T22:54:22.990Z,7.25
2023-06-30T22:56:50.687Z,7.13
2023-06-30T22:59:20.718Z,5.20
2023-06-30T23:01:50.822Z,6.40
2023-06-30T23:04:20.954Z,6.65
2023-06-30T23:06:48.870Z,5.25
2023-06-30T23:09:17.864Z,5.78
2023-06-30T23:11:47.621Z,5.55
2023-06-30T23:14:18.253Z,7.72
2023-06-30T23:16:49.470Z,4.93
2023-06-30T23:19:17.272Z,6.57
2023-06-30T23:21:45.634Z,5.93
2023-06-30T23:24:13.529Z,5.47
2023-06-30T23:26:46.076Z,5.97
2023-06-30T23:29:13.901Z,6.53
2023-06-30T23:31:42.014Z,5.40
2023-06-30T23:34:09.738Z,7.82
2023-06-30T23:36:38.590Z,7.60
2023-06-30T23:39:06.354Z,7.22
2023-06-30T23:41:34.040Z,7.45
2023-06-30T23:44:03.128Z,5.45
2023-06-30T23:46:31.604Z,4.57
2023-06-30T23:48:59.517Z,4.82
2023-06-30T23:51:29.360Z,5.03
2023-06-30T23:53:57.087Z,5.07
2023-06-30T23:56:27.039Z,4.78
2023-06-30T23:58:54.726Z,5.45
